AAL2243 KDFW-KLAS
Flight info
| Callsign | AAL2243 |
|---|---|
| Flight time | N/A |
| Altitude | 34000 |
| Route | HRPER3 HULZE TXO J72 GUP HAHAA RKSTR4 |
| Aircraft | A321/M-SDE3FGHIRWY/LB1 |
Departure
| Time | 2026-05-05 22:33 |
|---|---|
| Airport | Dallas Fort Worth International Airport (KDFW) |
Arrival
| Time | N/A |
|---|---|
| Airport | Harry Reid International Airport (KLAS) |
| Time | Latitude | Longitude | Altitude | Speed | Heading |
|---|---|---|---|---|---|
| 2026-05-05 22:02 | 32.90004 | -97.04263 | 599 ft | 0 kts | 181° |
| 2026-05-05 22:20 | 32.90027 | -97.04262 | 599 ft | 4 kts | 178° |
| 2026-05-05 22:20 | 32.90050 | -97.04268 | 599 ft | 4 kts | 123° |
| 2026-05-05 22:20 | 32.90058 | -97.04290 | 599 ft | 4 kts | 122° |
| 2026-05-05 22:20 | 32.90076 | -97.04311 | 598 ft | 4 kts | 160° |
| 2026-05-05 22:21 | 32.90102 | -97.04315 | 597 ft | 4 kts | 188° |
| 2026-05-05 22:21 | 32.90085 | -97.04321 | 598 ft | 4 kts | 206° |
| 2026-05-05 22:21 | 32.90080 | -97.04345 | 598 ft | 3 kts | 270° |
| 2026-05-05 22:21 | 32.90080 | -97.04374 | 598 ft | 4 kts | 270° |
| 2026-05-05 22:22 | 32.90080 | -97.04385 | 598 ft | 0 kts | 270° |
| 2026-05-05 22:26 | 32.90080 | -97.04388 | 598 ft | 1 kts | 270° |
| 2026-05-05 22:26 | 32.90080 | -97.04396 | 598 ft | 1 kts | 270° |
| 2026-05-05 22:26 | 32.90080 | -97.04411 | 598 ft | 3 kts | 270° |
| 2026-05-05 22:27 | 32.90081 | -97.04461 | 598 ft | 9 kts | 270° |
| 2026-05-05 22:27 | 32.90081 | -97.04546 | 598 ft | 11 kts | 270° |
| 2026-05-05 22:27 | 32.90081 | -97.04638 | 598 ft | 13 kts | 270° |
| 2026-05-05 22:27 | 32.90093 | -97.04755 | 598 ft | 14 kts | 295° |
| 2026-05-05 22:28 | 32.90102 | -97.04860 | 599 ft | 13 kts | 235° |
| 2026-05-05 22:28 | 32.90002 | -97.04886 | 599 ft | 18 kts | 180° |
| 2026-05-05 22:28 | 32.89877 | -97.04886 | 601 ft | 17 kts | 180° |
| 2026-05-05 22:28 | 32.89754 | -97.04886 | 601 ft | 20 kts | 180° |
| 2026-05-05 22:29 | 32.89614 | -97.04887 | 599 ft | 21 kts | 180° |
| 2026-05-05 22:29 | 32.89468 | -97.04889 | 598 ft | 21 kts | 180° |
| 2026-05-05 22:29 | 32.89319 | -97.04890 | 595 ft | 22 kts | 180° |
| 2026-05-05 22:29 | 32.89158 | -97.04889 | 591 ft | 24 kts | 180° |
| 2026-05-05 22:30 | 32.88991 | -97.04890 | 590 ft | 24 kts | 180° |
| 2026-05-05 22:30 | 32.88821 | -97.04893 | 587 ft | 25 kts | 181° |
| 2026-05-05 22:30 | 32.88648 | -97.04894 | 588 ft | 24 kts | 180° |
| 2026-05-05 22:30 | 32.88484 | -97.04894 | 589 ft | 23 kts | 180° |
| 2026-05-05 22:31 | 32.88322 | -97.04893 | 589 ft | 23 kts | 179° |
| 2026-05-05 22:31 | 32.88174 | -97.04893 | 590 ft | 20 kts | 180° |
| 2026-05-05 22:31 | 32.88031 | -97.04893 | 588 ft | 20 kts | 181° |
| 2026-05-05 22:31 | 32.87920 | -97.04913 | 585 ft | 14 kts | 227° |
| 2026-05-05 22:32 | 32.87909 | -97.05021 | 586 ft | 13 kts | 271° |
| 2026-05-05 22:32 | 32.87957 | -97.05088 | 588 ft | 12 kts | 350° |
| 2026-05-05 22:32 | 32.88029 | -97.05090 | 589 ft | 20 kts | 1° |
| 2026-05-05 22:32 | 32.88610 | -97.05094 | 588 ft | 105 kts | 0° |
| 2026-05-05 22:33 | 32.89513 | -97.05087 | 601 ft | 154 kts | 360° |
| 2026-05-05 22:33 | 32.90726 | -97.05075 | 654 ft | 189 kts | 359° |
| 2026-05-05 22:33 | 32.91991 | -97.05083 | 1424 ft | 176 kts | 356° |
| 2026-05-05 22:33 | 32.92816 | -97.05087 | 1898 ft | 175 kts | 358° |
| 2026-05-05 22:34 | 32.94038 | -97.05114 | 2439 ft | 177 kts | 354° |
| 2026-05-05 22:34 | 32.95327 | -97.05148 | 2622 ft | 195 kts | 355° |
| 2026-05-05 22:34 | 32.96751 | -97.05183 | 2755 ft | 214 kts | 355° |
| 2026-05-05 22:34 | 32.98280 | -97.05215 | 2866 ft | 233 kts | 355° |
| 2026-05-05 22:35 | 32.99973 | -97.05242 | 3143 ft | 249 kts | 356° |
| 2026-05-05 22:35 | 33.01728 | -97.05260 | 3649 ft | 256 kts | 355° |
| 2026-05-05 22:35 | 33.03520 | -97.05279 | 4232 ft | 260 kts | 356° |
| 2026-05-05 22:35 | 33.05336 | -97.05403 | 4771 ft | 261 kts | 341° |
| 2026-05-05 22:36 | 33.06862 | -97.06461 | 5282 ft | 256 kts | 308° |
| 2026-05-05 22:36 | 33.07631 | -97.08362 | 5684 ft | 259 kts | 280° |
| 2026-05-05 22:36 | 33.07975 | -97.10483 | 6265 ft | 260 kts | 279° |
| 2026-05-05 22:36 | 33.08307 | -97.12603 | 6880 ft | 262 kts | 276° |
| 2026-05-05 22:37 | 33.08344 | -97.14772 | 7450 ft | 263 kts | 262° |
| 2026-05-05 22:37 | 33.08011 | -97.16916 | 8067 ft | 263 kts | 258° |
| 2026-05-05 22:37 | 33.07663 | -97.19060 | 8664 ft | 265 kts | 258° |
| 2026-05-05 22:37 | 33.07319 | -97.21232 | 9272 ft | 266 kts | 258° |
| 2026-05-05 22:38 | 33.06980 | -97.23404 | 9862 ft | 267 kts | 258° |
| 2026-05-05 22:38 | 33.06639 | -97.25585 | 10438 ft | 267 kts | 257° |
| 2026-05-05 22:38 | 33.06075 | -97.27695 | 10900 ft | 273 kts | 246° |
| 2026-05-05 22:38 | 33.05287 | -97.29837 | 11017 ft | 291 kts | 245° |
| 2026-05-05 22:39 | 33.04438 | -97.32104 | 11139 ft | 309 kts | 245° |
| 2026-05-05 22:39 | 33.03535 | -97.34510 | 11275 ft | 324 kts | 245° |
| 2026-05-05 22:39 | 33.02604 | -97.36997 | 11673 ft | 330 kts | 245° |
| 2026-05-05 22:39 | 33.01666 | -97.39504 | 12225 ft | 332 kts | 245° |
| 2026-05-05 22:40 | 33.00723 | -97.42019 | 12835 ft | 332 kts | 245° |
| 2026-05-05 22:40 | 32.99778 | -97.44536 | 13449 ft | 333 kts | 245° |
| 2026-05-05 22:40 | 32.98834 | -97.47053 | 14005 ft | 333 kts | 245° |
| 2026-05-05 22:40 | 32.97886 | -97.49585 | 14551 ft | 334 kts | 245° |
| 2026-05-05 22:41 | 32.96940 | -97.52112 | 15254 ft | 336 kts | 246° |
| 2026-05-05 22:41 | 32.95996 | -97.54633 | 15843 ft | 336 kts | 246° |
| 2026-05-05 22:41 | 32.95039 | -97.57182 | 16413 ft | 338 kts | 245° |
| 2026-05-05 22:41 | 32.94078 | -97.59739 | 16978 ft | 339 kts | 245° |
| 2026-05-05 22:42 | 32.93111 | -97.62306 | 17539 ft | 340 kts | 245° |
| 2026-05-05 22:42 | 32.92140 | -97.64880 | 18046 ft | 342 kts | 246° |
| 2026-05-05 22:42 | 32.91164 | -97.67470 | 18498 ft | 344 kts | 246° |
| 2026-05-05 22:42 | 32.90317 | -97.70137 | 18919 ft | 346 kts | 254° |
| 2026-05-05 22:43 | 32.89945 | -97.72971 | 19367 ft | 349 kts | 265° |
| 2026-05-05 22:43 | 32.90083 | -97.75873 | 19823 ft | 354 kts | 275° |
| 2026-05-05 22:43 | 32.90736 | -97.78725 | 20261 ft | 362 kts | 285° |
| 2026-05-05 22:43 | 32.91660 | -97.81520 | 20725 ft | 363 kts | 285° |
| 2026-05-05 22:44 | 32.92582 | -97.84315 | 21159 ft | 363 kts | 285° |
| 2026-05-05 22:44 | 32.93499 | -97.87108 | 21572 ft | 363 kts | 285° |
| 2026-05-05 22:44 | 32.94417 | -97.89914 | 21987 ft | 363 kts | 285° |
| 2026-05-05 22:44 | 32.95330 | -97.92716 | 22396 ft | 363 kts | 285° |
| 2026-05-05 22:45 | 32.96245 | -97.95525 | 22656 ft | 364 kts | 285° |
| 2026-05-05 22:45 | 32.97161 | -97.98338 | 23060 ft | 365 kts | 285° |
| 2026-05-05 22:45 | 32.98079 | -98.01161 | 23398 ft | 366 kts | 285° |
| 2026-05-05 22:45 | 32.99001 | -98.03986 | 23708 ft | 367 kts | 285° |
| 2026-05-05 22:46 | 32.99928 | -98.06827 | 24030 ft | 368 kts | 285° |
| 2026-05-05 22:46 | 33.00856 | -98.09675 | 24317 ft | 369 kts | 285° |
| 2026-05-05 22:46 | 33.01786 | -98.12529 | 24614 ft | 371 kts | 285° |
| 2026-05-05 22:46 | 33.02720 | -98.15400 | 24906 ft | 372 kts | 285° |
| 2026-05-05 22:47 | 33.03653 | -98.18274 | 25194 ft | 373 kts | 285° |
| 2026-05-05 22:47 | 33.04589 | -98.21163 | 25494 ft | 374 kts | 285° |
| 2026-05-05 22:47 | 33.05527 | -98.24065 | 25777 ft | 375 kts | 285° |
| 2026-05-05 22:47 | 33.06469 | -98.26966 | 26067 ft | 377 kts | 285° |
| 2026-05-05 22:48 | 33.07420 | -98.29884 | 26336 ft | 378 kts | 285° |
| 2026-05-05 22:48 | 33.08373 | -98.32806 | 26598 ft | 379 kts | 285° |
| 2026-05-05 22:48 | 33.09320 | -98.35709 | 26863 ft | 381 kts | 284° |
| 2026-05-05 22:48 | 33.10293 | -98.38695 | 27096 ft | 383 kts | 284° |
| 2026-05-05 22:49 | 33.11259 | -98.41668 | 27359 ft | 384 kts | 284° |
| 2026-05-05 22:49 | 33.12220 | -98.44635 | 27668 ft | 385 kts | 284° |
| 2026-05-05 22:49 | 33.13189 | -98.47630 | 27947 ft | 386 kts | 284° |
| 2026-05-05 22:49 | 33.14159 | -98.50630 | 28221 ft | 388 kts | 284° |
| 2026-05-05 22:50 | 33.15129 | -98.53635 | 28491 ft | 389 kts | 284° |
| 2026-05-05 22:50 | 33.16099 | -98.56641 | 28795 ft | 388 kts | 284° |
| 2026-05-05 22:50 | 33.17066 | -98.59644 | 29179 ft | 386 kts | 284° |
| 2026-05-05 22:50 | 33.18017 | -98.62592 | 29552 ft | 385 kts | 284° |
| 2026-05-05 22:51 | 33.18978 | -98.65567 | 29909 ft | 383 kts | 284° |
| 2026-05-05 22:51 | 33.19937 | -98.68530 | 30204 ft | 381 kts | 284° |
| 2026-05-05 22:51 | 33.20889 | -98.71479 | 30495 ft | 380 kts | 283° |
| 2026-05-05 22:51 | 33.21833 | -98.74414 | 30788 ft | 378 kts | 283° |
| 2026-05-05 22:52 | 33.22772 | -98.77346 | 31069 ft | 376 kts | 283° |
| 2026-05-05 22:52 | 33.23703 | -98.80261 | 31367 ft | 375 kts | 283° |
| 2026-05-05 22:52 | 33.24630 | -98.83162 | 31651 ft | 374 kts | 283° |
| 2026-05-05 22:52 | 33.25558 | -98.86059 | 31929 ft | 372 kts | 283° |
| 2026-05-05 22:53 | 33.26480 | -98.88937 | 32213 ft | 371 kts | 283° |
| 2026-05-05 22:53 | 33.27399 | -98.91811 | 32490 ft | 369 kts | 283° |
| 2026-05-05 22:53 | 33.28314 | -98.94673 | 32759 ft | 368 kts | 283° |
| 2026-05-05 22:53 | 33.29223 | -98.97524 | 33033 ft | 366 kts | 283° |
| 2026-05-05 22:54 | 33.30127 | -99.00364 | 33291 ft | 365 kts | 283° |
| 2026-05-05 22:54 | 33.31029 | -99.03193 | 33547 ft | 364 kts | 283° |
| 2026-05-05 22:54 | 33.31926 | -99.06020 | 33728 ft | 363 kts | 283° |
| 2026-05-05 22:55 | 33.33696 | -99.11623 | 33755 ft | 361 kts | 282° |
| 2026-05-05 22:55 | 33.35472 | -99.17238 | 33771 ft | 360 kts | 282° |
| 2026-05-05 22:56 | 33.37239 | -99.22835 | 33751 ft | 360 kts | 282° |
| 2026-05-05 22:56 | 33.39009 | -99.28437 | 33747 ft | 360 kts | 282° |
| 2026-05-05 22:57 | 33.40770 | -99.34021 | 33735 ft | 358 kts | 282° |
| 2026-05-05 22:57 | 33.42529 | -99.39616 | 33735 ft | 359 kts | 282° |
| 2026-05-05 22:58 | 33.44286 | -99.45223 | 33762 ft | 360 kts | 282° |
| 2026-05-05 22:58 | 33.46047 | -99.50847 | 33775 ft | 361 kts | 281° |
| 2026-05-05 22:59 | 33.47722 | -99.56490 | 33769 ft | 359 kts | 279° |
| 2026-05-05 22:59 | 33.49274 | -99.62161 | 33776 ft | 358 kts | 279° |
| 2026-05-05 23:00 | 33.51591 | -99.70641 | 33770 ft | 359 kts | 279° |
| 2026-05-05 23:00 | 33.53166 | -99.76323 | 33790 ft | 359 kts | 279° |
| 2026-05-05 23:01 | 33.54741 | -99.82005 | 33792 ft | 359 kts | 279° |
| 2026-05-05 23:01 | 33.56312 | -99.87695 | 33811 ft | 359 kts | 279° |
| 2026-05-05 23:02 | 33.57879 | -99.93376 | 33809 ft | 359 kts | 279° |
| 2026-05-05 23:02 | 33.59441 | -99.99051 | 33797 ft | 358 kts | 279° |
| 2026-05-05 23:03 | 33.60993 | -100.04725 | 33801 ft | 357 kts | 279° |
| 2026-05-05 23:03 | 33.62553 | -100.10387 | 33799 ft | 357 kts | 279° |
| 2026-05-05 23:04 | 33.64114 | -100.16049 | 33797 ft | 357 kts | 279° |
| 2026-05-05 23:04 | 33.65658 | -100.21721 | 33826 ft | 357 kts | 279° |
| 2026-05-05 23:05 | 33.67388 | -100.27355 | 33812 ft | 361 kts | 282° |
| 2026-05-05 23:05 | 33.69304 | -100.32903 | 33817 ft | 362 kts | 282° |
| 2026-05-05 23:06 | 33.71215 | -100.38484 | 33815 ft | 361 kts | 282° |
| 2026-05-05 23:06 | 33.73084 | -100.44078 | 33811 ft | 361 kts | 281° |
| 2026-05-05 23:07 | 33.74934 | -100.49677 | 33812 ft | 361 kts | 281° |
| 2026-05-05 23:07 | 33.76784 | -100.55279 | 33826 ft | 361 kts | 281° |
| 2026-05-05 23:08 | 33.78629 | -100.60872 | 33809 ft | 357 kts | 280° |
| 2026-05-05 23:08 | 33.80451 | -100.66406 | 33797 ft | 356 kts | 280° |
| 2026-05-05 23:09 | 33.82269 | -100.71956 | 33797 ft | 357 kts | 280° |
| 2026-05-05 23:09 | 33.84096 | -100.77527 | 33795 ft | 358 kts | 280° |
| 2026-05-05 23:10 | 33.85918 | -100.83103 | 33805 ft | 358 kts | 280° |
| 2026-05-05 23:10 | 33.87741 | -100.88683 | 33803 ft | 359 kts | 280° |
| 2026-05-05 23:11 | 33.89566 | -100.94270 | 33801 ft | 359 kts | 280° |
| 2026-05-05 23:11 | 33.91370 | -100.99823 | 33807 ft | 359 kts | 280° |
| 2026-05-05 23:12 | 33.93195 | -101.05413 | 33809 ft | 359 kts | 280° |
| 2026-05-05 23:12 | 33.95021 | -101.11011 | 33810 ft | 359 kts | 280° |
| 2026-05-05 23:13 | 33.96832 | -101.16604 | 33791 ft | 359 kts | 280° |
| 2026-05-05 23:13 | 33.98639 | -101.22205 | 33793 ft | 359 kts | 280° |
| 2026-05-05 23:14 | 34.00452 | -101.27820 | 33795 ft | 359 kts | 280° |
| 2026-05-05 23:14 | 34.02263 | -101.33433 | 33791 ft | 358 kts | 280° |
| 2026-05-05 23:15 | 34.04067 | -101.39036 | 33800 ft | 359 kts | 280° |
| 2026-05-05 23:15 | 34.05869 | -101.44663 | 33816 ft | 360 kts | 280° |
| 2026-05-05 23:16 | 34.07672 | -101.50296 | 33833 ft | 360 kts | 280° |
| 2026-05-05 23:16 | 34.09470 | -101.55905 | 33858 ft | 361 kts | 280° |
| 2026-05-05 23:17 | 34.11277 | -101.61554 | 33874 ft | 361 kts | 280° |
| 2026-05-05 23:17 | 34.13076 | -101.67208 | 33881 ft | 361 kts | 279° |
| 2026-05-05 23:18 | 34.14863 | -101.72826 | 33876 ft | 355 kts | 278° |
| 2026-05-05 23:18 | 34.16634 | -101.78392 | 33838 ft | 355 kts | 279° |
| 2026-05-05 23:19 | 34.18406 | -101.83985 | 33835 ft | 357 kts | 279° |
| 2026-05-05 23:19 | 34.20178 | -101.89611 | 33822 ft | 359 kts | 279° |
| 2026-05-05 23:20 | 34.21955 | -101.95255 | 33805 ft | 360 kts | 279° |
| 2026-05-05 23:20 | 34.23443 | -101.99961 | 33795 ft | 361 kts | 279° |
| 2026-05-05 23:21 | 34.25231 | -102.05627 | 33852 ft | 361 kts | 278° |
| 2026-05-05 23:21 | 34.27008 | -102.11284 | 33781 ft | 360 kts | 278° |
| 2026-05-05 23:22 | 34.28781 | -102.16950 | 33767 ft | 361 kts | 278° |
| 2026-05-05 23:22 | 34.30561 | -102.22633 | 33771 ft | 361 kts | 278° |
| 2026-05-05 23:23 | 34.32334 | -102.28325 | 33779 ft | 362 kts | 278° |
| 2026-05-05 23:23 | 34.34106 | -102.34020 | 33780 ft | 362 kts | 278° |
| 2026-05-05 23:24 | 34.35878 | -102.39718 | 33778 ft | 362 kts | 278° |
| 2026-05-05 23:24 | 34.37658 | -102.45440 | 33766 ft | 365 kts | 278° |
| 2026-05-05 23:25 | 34.39436 | -102.51169 | 33764 ft | 367 kts | 278° |
| 2026-05-05 23:25 | 34.41226 | -102.56977 | 33771 ft | 369 kts | 278° |
| 2026-05-05 23:26 | 34.43026 | -102.62805 | 33766 ft | 370 kts | 278° |
| 2026-05-05 23:26 | 34.44828 | -102.68643 | 33783 ft | 370 kts | 278° |
| 2026-05-05 23:27 | 34.46635 | -102.74495 | 33771 ft | 371 kts | 278° |
| 2026-05-05 23:27 | 34.48434 | -102.80358 | 33750 ft | 371 kts | 278° |
| 2026-05-05 23:28 | 34.49897 | -102.86275 | 33755 ft | 360 kts | 270° |
| 2026-05-05 23:28 | 34.50809 | -102.92261 | 33763 ft | 361 kts | 270° |
| 2026-05-05 23:29 | 34.51738 | -102.98258 | 33768 ft | 362 kts | 271° |
| 2026-05-05 23:29 | 34.52672 | -103.04279 | 33776 ft | 363 kts | 270° |
| 2026-05-05 23:30 | 34.53585 | -103.10253 | 33777 ft | 363 kts | 270° |
| 2026-05-05 23:30 | 34.54498 | -103.16202 | 33776 ft | 353 kts | 271° |
| 2026-05-05 23:31 | 34.55390 | -103.22037 | 33735 ft | 352 kts | 271° |
| 2026-05-05 23:31 | 34.56269 | -103.27879 | 33738 ft | 352 kts | 271° |
| 2026-05-05 23:32 | 34.57147 | -103.33733 | 33737 ft | 353 kts | 271° |
| 2026-05-05 23:32 | 34.58027 | -103.39604 | 33706 ft | 354 kts | 271° |
| 2026-05-05 23:33 | 34.58913 | -103.45479 | 33699 ft | 354 kts | 271° |
| 2026-05-05 23:33 | 34.59797 | -103.51357 | 33707 ft | 354 kts | 271° |
| 2026-05-05 23:34 | 34.60675 | -103.57235 | 33704 ft | 354 kts | 271° |
| 2026-05-05 23:34 | 34.61551 | -103.63116 | 33707 ft | 354 kts | 271° |
| 2026-05-05 23:35 | 34.62428 | -103.69010 | 33682 ft | 354 kts | 271° |
| 2026-05-05 23:35 | 34.63289 | -103.74895 | 33678 ft | 354 kts | 271° |
| 2026-05-05 23:36 | 34.64154 | -103.80781 | 33675 ft | 354 kts | 271° |
| 2026-05-05 23:36 | 34.65019 | -103.86664 | 33699 ft | 354 kts | 271° |
| 2026-05-05 23:37 | 34.65872 | -103.92553 | 33706 ft | 354 kts | 271° |
| 2026-05-05 23:37 | 34.66729 | -103.98440 | 33701 ft | 354 kts | 271° |
| 2026-05-05 23:38 | 34.67587 | -104.04325 | 33692 ft | 354 kts | 271° |
| 2026-05-05 23:38 | 34.68438 | -104.10220 | 33698 ft | 354 kts | 271° |
| 2026-05-05 23:39 | 34.69284 | -104.16098 | 33689 ft | 353 kts | 271° |
| 2026-05-05 23:39 | 34.70129 | -104.21985 | 33690 ft | 354 kts | 270° |
| 2026-05-05 23:40 | 34.70969 | -104.27882 | 33694 ft | 354 kts | 271° |
| 2026-05-05 23:40 | 34.71809 | -104.33788 | 33710 ft | 355 kts | 271° |
| 2026-05-05 23:41 | 34.72652 | -104.39703 | 33731 ft | 355 kts | 271° |
| 2026-05-05 23:41 | 34.73488 | -104.45622 | 33757 ft | 355 kts | 270° |
| 2026-05-05 23:42 | 34.74319 | -104.51505 | 33781 ft | 355 kts | 271° |
| 2026-05-05 23:42 | 34.75154 | -104.57429 | 33796 ft | 355 kts | 270° |
| 2026-05-05 23:43 | 34.75982 | -104.63352 | 33813 ft | 355 kts | 270° |
| 2026-05-05 23:43 | 34.76806 | -104.69281 | 33821 ft | 355 kts | 270° |
| 2026-05-05 23:44 | 34.77625 | -104.75207 | 33814 ft | 355 kts | 270° |
| 2026-05-05 23:44 | 34.78446 | -104.81135 | 33801 ft | 355 kts | 270° |
| 2026-05-05 23:45 | 34.79264 | -104.87056 | 33779 ft | 355 kts | 270° |
| 2026-05-05 23:45 | 34.80080 | -104.92980 | 33740 ft | 355 kts | 270° |
| 2026-05-05 23:46 | 34.80894 | -104.98922 | 33705 ft | 357 kts | 270° |
| 2026-05-05 23:46 | 34.81707 | -105.04887 | 33722 ft | 358 kts | 270° |
| 2026-05-05 23:47 | 34.82518 | -105.10875 | 33727 ft | 359 kts | 270° |
| 2026-05-05 23:47 | 34.83328 | -105.16869 | 33723 ft | 359 kts | 270° |
| 2026-05-05 23:48 | 34.84135 | -105.22863 | 33740 ft | 359 kts | 270° |
| 2026-05-05 23:48 | 34.84940 | -105.28865 | 33743 ft | 359 kts | 270° |
| 2026-05-05 23:49 | 34.85742 | -105.34874 | 33742 ft | 360 kts | 270° |
| 2026-05-05 23:49 | 34.86544 | -105.40881 | 33757 ft | 360 kts | 270° |
| 2026-05-05 23:50 | 34.87344 | -105.46900 | 33758 ft | 360 kts | 270° |
| 2026-05-05 23:50 | 34.88134 | -105.52918 | 33777 ft | 360 kts | 270° |
| 2026-05-05 23:51 | 34.88918 | -105.58892 | 33773 ft | 360 kts | 270° |
| 2026-05-05 23:51 | 34.89701 | -105.64919 | 33823 ft | 360 kts | 270° |
| 2026-05-05 23:52 | 34.90490 | -105.70932 | 33807 ft | 359 kts | 270° |
| 2026-05-05 23:52 | 34.91277 | -105.76942 | 33798 ft | 359 kts | 270° |
| 2026-05-05 23:53 | 34.92051 | -105.82942 | 33812 ft | 358 kts | 270° |
| 2026-05-05 23:53 | 34.92826 | -105.88931 | 33808 ft | 358 kts | 270° |
| 2026-05-05 23:54 | 34.93603 | -105.94919 | 33815 ft | 358 kts | 270° |
| 2026-05-05 23:54 | 34.94366 | -106.00907 | 33815 ft | 358 kts | 269° |
| 2026-05-05 23:55 | 34.95125 | -106.06905 | 33821 ft | 359 kts | 269° |
| 2026-05-05 23:55 | 34.95888 | -106.12928 | 33817 ft | 359 kts | 270° |
| 2026-05-05 23:56 | 34.96654 | -106.18959 | 33819 ft | 360 kts | 269° |
| 2026-05-05 23:56 | 34.97410 | -106.24953 | 33856 ft | 360 kts | 269° |
| 2026-05-05 23:57 | 34.98167 | -106.30987 | 33877 ft | 360 kts | 269° |
| 2026-05-05 23:57 | 34.98924 | -106.37028 | 33923 ft | 360 kts | 269° |
| 2026-05-05 23:58 | 34.99682 | -106.43073 | 33938 ft | 360 kts | 269° |
| 2026-05-05 23:58 | 35.00434 | -106.49116 | 33959 ft | 360 kts | 269° |
| 2026-05-05 23:59 | 35.01174 | -106.55153 | 33963 ft | 360 kts | 269° |
| 2026-05-05 23:59 | 35.01911 | -106.61194 | 33962 ft | 360 kts | 269° |
| 2026-05-06 00:00 | 35.02651 | -106.67240 | 33959 ft | 360 kts | 269° |
| 2026-05-06 00:00 | 35.03389 | -106.73279 | 33959 ft | 360 kts | 269° |
| 2026-05-06 00:01 | 35.04119 | -106.79316 | 33976 ft | 360 kts | 269° |
| 2026-05-06 00:01 | 35.05207 | -106.85341 | 33974 ft | 367 kts | 274° |
| 2026-05-06 00:02 | 35.05872 | -106.88351 | 33858 ft | 367 kts | 274° |
| 2026-05-06 00:02 | 35.06535 | -106.91348 | 33815 ft | 364 kts | 274° |
| 2026-05-06 00:02 | 35.07843 | -106.97312 | 33805 ft | 363 kts | 274° |
| 2026-05-06 00:03 | 35.09141 | -107.03281 | 33807 ft | 364 kts | 274° |
| 2026-05-06 00:03 | 35.10431 | -107.09229 | 33817 ft | 364 kts | 274° |
| 2026-05-06 00:04 | 35.11736 | -107.15254 | 33811 ft | 364 kts | 274° |
| 2026-05-06 00:04 | 35.13021 | -107.21197 | 33819 ft | 364 kts | 274° |
| 2026-05-06 00:05 | 35.14962 | -107.30187 | 33816 ft | 365 kts | 274° |
| 2026-05-06 00:06 | 35.16252 | -107.36180 | 33820 ft | 364 kts | 274° |
| 2026-05-06 00:06 | 35.17324 | -107.41196 | 33817 ft | 364 kts | 274° |
| 2026-05-06 00:07 | 35.18819 | -107.48173 | 33822 ft | 365 kts | 274° |
| 2026-05-06 00:07 | 35.19886 | -107.53171 | 33822 ft | 365 kts | 274° |
| 2026-05-06 00:08 | 35.21158 | -107.59179 | 33817 ft | 363 kts | 274° |
| 2026-05-06 00:08 | 35.22426 | -107.65136 | 33807 ft | 362 kts | 274° |
| 2026-05-06 00:09 | 35.23691 | -107.71110 | 33810 ft | 362 kts | 274° |
| 2026-05-06 00:09 | 35.24951 | -107.77079 | 33806 ft | 363 kts | 274° |
| 2026-05-06 00:10 | 35.26210 | -107.83071 | 33969 ft | 364 kts | 274° |
| 2026-05-06 00:10 | 35.27473 | -107.89075 | 33971 ft | 365 kts | 274° |
| 2026-05-06 00:11 | 35.28734 | -107.95088 | 33963 ft | 365 kts | 274° |
| 2026-05-06 00:11 | 35.29998 | -108.01116 | 33943 ft | 365 kts | 274° |
| 2026-05-06 00:12 | 35.31250 | -108.07144 | 33920 ft | 366 kts | 274° |
| 2026-05-06 00:12 | 35.32493 | -108.13145 | 33895 ft | 366 kts | 274° |
| 2026-05-06 00:13 | 35.33747 | -108.19188 | 33876 ft | 366 kts | 274° |
| 2026-05-06 00:13 | 35.34996 | -108.25232 | 33856 ft | 365 kts | 273° |
| 2026-05-06 00:14 | 35.36237 | -108.31254 | 33840 ft | 364 kts | 273° |
| 2026-05-06 00:14 | 35.37478 | -108.37283 | 33838 ft | 365 kts | 273° |
| 2026-05-06 00:15 | 35.38717 | -108.43309 | 33867 ft | 365 kts | 273° |
| 2026-05-06 00:15 | 35.39951 | -108.49348 | 33860 ft | 366 kts | 273° |
| 2026-05-06 00:16 | 35.41186 | -108.55409 | 33856 ft | 366 kts | 273° |
| 2026-05-06 00:16 | 35.42413 | -108.61470 | 33853 ft | 366 kts | 273° |
| 2026-05-06 00:17 | 35.43642 | -108.67535 | 33846 ft | 367 kts | 273° |
| 2026-05-06 00:17 | 35.44874 | -108.73603 | 33841 ft | 367 kts | 273° |
| 2026-05-06 00:17 | 35.45489 | -108.76643 | 34025 ft | 366 kts | 273° |
| 2026-05-06 00:18 | 35.46093 | -108.79636 | 34046 ft | 367 kts | 273° |
| 2026-05-06 00:18 | 35.47308 | -108.85721 | 34035 ft | 366 kts | 271° |
| 2026-05-06 00:18 | 35.47627 | -108.88762 | 34030 ft | 355 kts | 263° |